UPDATE or REFRESH or RELOAD each time you view race results!

The  Belmont 16ft Sailing Club Ltd  Presents

Results by : TopYacht Software

Race 4   [30/12/2011]   updated on :  30/12/2011  9:03:09 PM

Cadet National Championships 2011/12

Cadet Nationals results Start : 15:06
Place Sail No Boat Name From Elapsd YS Cor d T Skipper CREW Score Fin Tim
1 9699 SIROCCO SBSC 54:19 54:19 Charlie Connor Ethan Galbraith 1.0 16:00:19
2 9778 IMPULSE SBSC 54:37 54:37 Samantha Bailey Hannah Chadwick 2.0 16:00:37
3 9280 UNFINISHED BUSINESS SYC 55:38 55:38 Alice Endersbee Eliza Davies 3.0 16:01:38
4 9531 PHOENIX SBSC 56:45 56:45 Sam Tiedemann Chloe Abel 4.0 16:02:45
5 9562 MELTEMI SBSC 56:49 56:49 Oliver Burnell Issie De Clerk 5.0 16:02:49
6 9628 IT'S PINK! RGYC 57:06 57:06 Emily Goodfellow Lachlan Hill 6.0 16:03:06
7 8931 MIDNIGHT MAGIC RGYC 57:08 57:08 Charlie Friend Ben Townson 7.0 16:03:08
8 9424 SHIMMER SBSC 57:28 57:28 Sam Abel William Cooper 8.0 16:03:28
9 9824 ENDLESS SUMMER PLYC 57:31 57:31 Amy Perin Marni Lydeamore 9.0 16:03:31
10 9552 EXECUTIONER SBSC 57:36 57:36 Silas Hamilton Rupert Hamilton 10.0 16:03:36
11 9629 WHITE MISSILE RGYC 58:01 58:01 Nicola Armstrong Emma Kelly 11.0 16:04:01
12 4109 SNAKEBITE RGYC 58:09 58:09 William Townson Claire Townson 12.0 16:04:09
13 9614 TEMPEST RGYC 58:23 58:23 Olivia Neilson Joel Lay 13.0 16:04:23
14 9529 INSAYNE SYC 58:25 58:25 Jacob Freeman Jonathan Coman 14.0 16:04:25
15 5509 SAMARAN SYC 58:52 58:52 Julian Sasson Molly Furey 15.0 16:04:52
16 9523 BROTHERS IN ARMS RGYC 59:05 59:05 Darcy Baranowski Dominic Randall 16.0 16:05:05
17 5758 WILD THING SBSC 59:33 59:33 Thomas Cooper Angus Price 17.0 16:05:33
18 5663 REDPATH RGYC 59:38 59:38 Georgia Randall Matthew Eid 18.0 16:05:38
19 9823 LEAP FROG RGYC 59:42 59:42 Lucy Stephens Alanna Field 19.0 16:05:42
20 9612 DIRTY HARRY SYC 59:55 59:55 Angus Rae Zoe Rae 20.0 16:05:55
21 9744 SHADOW LBSC 01:00:27 01:00:27 Jalina Thompson-Kamb Starr Thompson 21.0 16:06:27
22 9550 JOLT BSC 01:00:43 01:00:43 Sarah Lawman Robert Donovan 22.0 16:06:43
23 9620 BLITZ~EM BSC 01:00:50 01:00:50 Ryan Bogatez Mark Donovan 23.0 16:06:50
24 9621 STEALTH RYCV 01:00:54 01:00:54 Jack Fowler Ryan Croft 24.0 16:06:54
25 9520 DROP BEARS SBSC 01:00:58 01:00:58 William Connor Callum Ingram 25.0 16:06:58
26 9698 WILDCARD RGYC 01:00:59 01:00:59 Liam Robinson Gabe Nolan 26.0 16:06:59
27 5757 STRIKER SYC 01:01:15 01:01:15 Dylan Rohan Lachlan Coman 27.0 16:07:15
28 9559 RESISTANCE RGYC 01:01:18 01:01:18 Riley Mulgrew Oliver Manton 28.0 16:07:18
29 5637 VAMOOSE SYC 01:01:47 01:01:47 Charlie Rae Patrick Rohan 29.0 16:07:47
30 5636 TRUMP CARD BMYC 01:02:04 01:02:04 Kurt Braden Zac Braden 30.0 16:08:04
31 5700 SIDEWINDER RYCV 01:02:16 01:02:16 Louis Schofield Max Knell 31.0 16:08:16
32 9821 SIBERIAN TIGER RGYC 01:02:22 01:02:22 Sam Stephens Nathan Field 32.0 16:08:22
33 9528 ODYSSEY SYC 01:02:25 01:02:25 Jarad Cavanagh Shae Rohan 33.0 16:08:25
34 9777 X-T-SEA RGYC 01:02:33 01:02:33 Billy Goodfellow Joshua Hill 34.0 16:08:33
35 9616 CHECKMATE RGYC 01:02:34 01:02:34 Thomas Alexander Dexter Hare-Zen 35.0 16:08:34
36 4118 SKEETA RGYC 01:02:48 01:02:48 Oliver Friend Jasper Cartwright 36.0 16:08:48
37 9524 KING GEORGE RYCV 01:03:00 01:03:00 Phillipah Miller Lucy Fowler 37.0 16:09:00
38 9284 MAGOO 2 SYC 01:03:09 01:03:09 Patrick Chipp Jack Furey 38.0 16:09:09
39 5661 REBEL TWO RGYC 01:03:16 01:03:16 Will Newman Nick Manton 39.0 16:09:16
40 9561 WINNING EDGE SBSC 01:03:18 01:03:18 Toby Burnell Poppy Newton 40.0 16:09:18
41 9426 CRAZY BSC 01:03:19 01:03:19 Tristan O'Brien Ella Gray 41.0 16:09:19
42 9822 GOODNESS GRACIOUS SYC 01:03:28 01:03:28 Grace Endersbee Courtney Perryman 42.0 16:09:28
43 9281 HIGH CALIBRE PLYC 01:03:46 01:03:46 Lauren Henderson Alissa Kelsey 43.0 16:09:46
44 4881 PIRANHA BSC 01:04:06 01:04:06 Charlotte Gray Mackenzie Gray 44.0 16:10:06
45 4690 SAILMAKER RYCV 01:04:13 01:04:13 Ben Wilson Ryan Cambell 45.0 16:10:13
46 5653 MANXMAN RYCV 01:04:30 01:04:30 Brodie Roberts Callum Prestedge 46.0 16:10:30
47 9611 HOLD ON RYCV 01:04:35 01:04:35 Harrison Croft James Black 47.0 16:10:35
48 5752 IMP RGYC 01:04:37 01:04:37 Aimee Altermatt Ryu Mayumi 48.0 16:10:37
49 9526 HYPER HYPER SYC 01:04:38 01:04:38 Ashley Cavanagh Georgia Wiley 49.0 16:10:38
50 9527 MUSTANG SALLY RYCV 01:05:01 01:05:01 Jacqueline Prestedge Callum Girvin 50.0 16:11:01
51 5616 LOQUACIOUS SYC 01:05:02 01:05:02 Brooke Robson Zoe Wiley 51.0 16:11:02
52 5494 RUSTLER BSC 01:05:15 01:05:15 Stuart Plenderleith Oscar O'Brien 52.0 16:11:15
53 9747 LIFE TO THE XTREME PLYC 01:06:17 01:06:17 Georgina Hughes Elsie Kenny 53.0 16:12:17
54 9626 CLAREBUOYANT RYCV 01:06:30 01:06:30 Clare Olding Patrick De Koster 54.0 16:12:30
55 5740 RECOIL BSC 01:06:36 01:06:36 James Burley-Jukes Charlotte Rogers 55.0 16:12:36
56 6969 BRIDGEWICK FARM RYCV 01:06:37 01:06:37 Lucy Fowler Wynn Schofield 56.0 16:12:37
57 5501 WASABI BSC 01:07:27 01:07:27 Luke Bogatez Matthew Ackery 57.0 16:13:27
58 9287 CORINTHIAN BSC 01:07:34 01:07:34 Fenella Obrien Toby Burley-Jukes 58.0 16:13:34
59 9617 BULLANT RYCV 01:08:36 01:08:36 Michael Johnson Eamon Zappia 59.0 16:14:36
60 5489 DELTA BSC 01:13:24 01:13:24 Vicki Waldock Hannah Miller 60.0 16:19:24